Time;durP1;ratioP1;P1;durP2;ratioP2;P2;SDS_P1;SDS_P2;PMS_P1;PMS_P2;Temp;Humidity;BMP_temperature;BMP_pressure;BME280_temperature;BME280_humidity;BME280_pressure;Samples;Min_cycle;Max_cycle;Signal;HPM_P1;HPM_P2
2022/08/06 00:02:15;;;;;;;5.75;1.23;;;;;;;19.91;56.47;99498.69;5150580;27;20138;-81
2022/08/06 00:04:42;;;;;;;3.00;1.20;;;;;;;19.79;56.33;99471.09;5153212;27;20501;-81
2022/08/06 00:07:12;;;;;;;3.85;0.85;;;;;;;19.81;55.63;99485.47;5152054;27;20134;-81
2022/08/06 00:09:39;;;;;;;7.03;1.33;;;;;;;19.77;56.13;99490.63;5152545;27;20046;-81
2022/08/06 00:12:07;;;;;;;4.32;1.50;;;;;;;19.83;56.23;99507.31;5151308;27;20050;-80
2022/08/06 00:14:34;;;;;;;2.85;1.38;;;;;;;19.74;56.08;99502.13;5152068;27;20057;-81
2022/08/06 00:17:02;;;;;;;3.40;0.82;;;;;;;19.82;55.77;99514.75;5153095;27;20035;-81
2022/08/06 00:19:29;;;;;;;6.15;2.63;;;;;;;19.68;55.85;99508.59;5150866;27;20130;-80
2022/08/06 00:21:56;;;;;;;2.30;0.95;;;;;;;19.56;56.36;99496.69;5150573;27;20050;-80
2022/08/06 00:24:24;;;;;;;3.60;1.08;;;;;;;19.68;56.30;99511.34;5151005;27;20507;-81
2022/08/06 00:26:50;;;;;;;4.15;0.90;;;;;;;19.71;56.33;99513.63;5154012;27;20072;-81
2022/08/06 00:29:17;;;;;;;7.53;1.40;;;;;;;19.79;56.36;99516.06;5153694;27;20048;-81
2022/08/06 00:31:43;;;;;;;1.00;0.90;;;;;;;19.57;56.68;99528.69;5152182;27;20103;-81
2022/08/06 00:34:10;;;;;;;2.58;1.45;;;;;;;19.49;56.66;99513.31;5153720;27;20074;-81
2022/08/06 00:36:37;;;;;;;2.08;1.08;;;;;;;19.42;56.84;99498.78;5154440;27;20390;-81
2022/08/06 00:39:05;;;;;;;1.13;1.00;;;;;;;19.40;56.51;99500.94;5151535;27;20101;-80
2022/08/06 00:41:34;;;;;;;1.38;0.90;;;;;;;19.41;56.44;99508.97;5153562;27;20376;-82
2022/08/06 00:44:01;;;;;;;5.95;1.35;;;;;;;19.44;56.81;99516.78;5152893;27;20043;-81
2022/08/06 00:46:28;;;;;;;2.38;1.00;;;;;;;19.27;56.89;99491.78;5147111;27;20039;-81
2022/08/06 00:48:55;;;;;;;4.72;1.50;;;;;;;19.35;56.71;99518.19;5153821;27;20129;-80
2022/08/06 00:51:24;;;;;;;1.02;0.82;;;;;;;19.26;56.95;99487.34;5153996;27;20070;-80
2022/08/06 00:53:53;;;;;;;1.90;1.17;;;;;;;19.42;57.11;99507.06;5152386;27;20399;-81
2022/08/06 00:56:22;;;;;;;3.90;0.85;;;;;;;19.43;56.97;99498.53;5153418;27;20076;-82
2022/08/06 00:58:50;;;;;;;6.27;0.80;;;;;;;19.56;56.94;99521.50;5153707;27;20054;-82
2022/08/06 01:01:17;;;;;;;1.10;0.80;;;;;;;19.25;57.16;99487.59;5153726;27;20054;-82
2022/08/06 01:03:44;;;;;;;2.92;1.30;;;;;;;19.33;57.06;99517.59;5152760;27;20085;-82
2022/08/06 01:06:11;;;;;;;1.95;0.90;;;;;;;19.23;56.86;99512.63;5152124;27;20470;-81
2022/08/06 01:08:38;;;;;;;3.35;0.98;;;;;;;19.21;56.84;99517.53;5152967;27;20132;-82
2022/08/06 01:11:05;;;;;;;1.25;0.90;;;;;;;19.21;57.08;99512.03;5152208;27;20042;-82
2022/08/06 01:13:31;;;;;;;4.00;1.20;;;;;;;19.24;57.14;99516.22;5152041;27;20494;-82
2022/08/06 01:16:10;;;;;;;6.28;1.08;;;;;;;19.28;57.14;99528.47;5153380;27;20046;-82
2022/08/06 01:18:44;;;;;;;2.60;0.90;;;;;;;19.04;57.49;99498.03;5153290;27;20138;-81
2022/08/06 01:21:29;;;;;;;3.67;1.10;;;;;;;19.14;57.75;99513.19;5153384;27;20102;-81
2022/08/06 01:24:20;;;;;;;4.85;1.05;;;;;;;19.03;57.95;99521.16;5150334;27;20382;-81
2022/08/06 01:26:51;;;;;;;4.22;1.00;;;;;;;18.79;57.69;99498.13;5144324;27;20092;-82
2022/08/06 01:29:25;;;;;;;5.18;1.20;;;;;;;18.82;58.12;99513.34;5148788;27;20039;-81
2022/08/06 01:31:56;;;;;;;2.90;1.08;;;;;;;18.76;58.46;99520.63;5150137;27;20046;-81
2022/08/06 01:34:28;;;;;;;3.00;0.93;;;;;;;18.57;58.93;99511.50;5147549;27;20047;-81
2022/08/06 01:37:00;;;;;;;4.00;1.17;;;;;;;18.81;58.79;99544.72;5151580;27;20045;-81
2022/08/06 01:39:31;;;;;;;3.08;1.15;;;;;;;18.69;58.96;99528.13;5148641;27;20398;-82
2022/08/06 01:42:01;;;;;;;10.05;1.00;;;;;;;18.74;59.06;99555.78;5152902;27;20485;-81
2022/08/06 01:44:34;;;;;;;1.88;0.85;;;;;;;18.67;58.94;99536.59;5155049;27;20049;-81
2022/08/06 01:47:04;;;;;;;0.60;0.60;;;;;;;18.65;59.19;99515.88;5157965;27;20110;-82
2022/08/06 01:49:34;;;;;;;1.80;0.65;;;;;;;18.62;59.50;99532.84;5163045;27;20057;-81
2022/08/06 01:52:02;;;;;;;2.28;1.00;;;;;;;18.67;59.45;99542.13;5167398;27;20049;-81
2022/08/06 01:54:31;;;;;;;1.35;0.80;;;;;;;18.58;59.96;99543.50;5154971;27;20077;-81
2022/08/06 01:57:01;;;;;;;1.10;0.75;;;;;;;18.46;60.15;99517.78;5153346;27;20130;-81
2022/08/06 01:59:34;;;;;;;3.88;1.25;;;;;;;18.51;60.01;99534.44;5150899;27;20050;-81
2022/08/06 02:02:03;;;;;;;8.65;1.00;;;;;;;18.44;60.41;99540.03;5149787;27;20039;-82
2022/08/06 02:04:33;;;;;;;2.47;1.13;;;;;;;18.19;60.39;99515.31;5149926;27;20043;-81
2022/08/06 02:07:04;;;;;;;3.03;1.65;;;;;;;18.37;60.49;99547.50;5151716;27;20049;-81
2022/08/06 02:09:32;;;;;;;1.42;0.80;;;;;;;18.39;60.75;99537.94;5148715;27;20050;-81
2022/08/06 02:12:05;;;;;;;3.95;1.15;;;;;;;18.42;60.79;99535.81;5151751;27;20473;-81
2022/08/06 02:14:38;;;;;;;2.28;1.00;;;;;;;18.60;59.97;99540.50;5148924;27;20041;-81
2022/08/06 02:17:06;;;;;;;2.35;0.80;;;;;;;18.58;60.13;99547.06;5151676;27;20070;-82
2022/08/06 02:19:35;;;;;;;3.45;0.80;;;;;;;18.39;60.24;99528.84;5150447;27;20109;-81
2022/08/06 02:22:04;;;;;;;1.30;0.80;;;;;;;18.30;60.94;99541.22;5150193;27;20046;-82
2022/08/06 02:24:32;;;;;;;2.40;1.55;;;;;;;18.28;61.06;99537.88;5150032;27;20051;-81
2022/08/06 02:27:02;;;;;;;0.82;0.80;;;;;;;18.22;61.47;99531.34;5148484;27;20047;-81
2022/08/06 02:29:30;;;;;;;1.75;1.00;;;;;;;18.30;61.45;99520.03;5149926;27;20085;-81
2022/08/06 02:31:58;;;;;;;2.15;0.80;;;;;;;18.32;61.38;99530.81;5151870;27;20390;-81
2022/08/06 02:34:25;;;;;;;1.23;0.95;;;;;;;18.11;61.84;99510.06;5150070;27;20163;-81
2022/08/06 02:36:58;;;;;;;1.50;0.93;;;;;;;18.23;62.09;99541.28;5145672;27;20053;-81
2022/08/06 02:39:29;;;;;;;4.13;1.25;;;;;;;18.03;62.81;99524.94;5146441;27;20046;-82
2022/08/06 02:42:03;;;;;;;4.43;1.23;;;;;;;17.93;63.79;99543.88;5151944;27;20039;-82
2022/08/06 02:44:40;;;;;;;1.48;0.90;;;;;;;18.06;63.26;99549.25;5150679;27;20050;-82
2022/08/06 02:47:13;;;;;;;2.25;1.15;;;;;;;17.91;63.19;99516.59;5150673;27;20061;-80
2022/08/06 02:49:44;;;;;;;1.90;0.90;;;;;;;17.99;63.12;99534.72;5138747;27;20051;-81
2022/08/06 02:52:17;;;;;;;5.30;1.10;;;;;;;17.89;63.12;99512.38;5148154;27;20047;-81
2022/08/06 02:54:47;;;;;;;3.08;1.05;;;;;;;17.94;63.39;99543.63;5135405;27;20038;-82
2022/08/06 02:57:21;;;;;;;0.60;0.60;;;;;;;18.04;63.22;99540.41;5154219;27;20078;-81
2022/08/06 02:59:51;;;;;;;3.03;1.20;;;;;;;18.00;63.47;99542.75;5154895;27;20046;-80
2022/08/06 03:02:23;;;;;;;3.13;1.10;;;;;;;17.84;63.73;99532.28;5153178;27;20498;-82
2022/08/06 03:04:52;;;;;;;6.53;1.13;;;;;;;17.93;63.52;99528.22;5153518;27;20216;-81
2022/08/06 03:07:21;;;;;;;2.53;1.05;;;;;;;17.87;64.09;99540.09;5153853;27;20045;-81
2022/08/06 03:09:49;;;;;;;5.70;1.00;;;;;;;17.66;64.43;99527.56;5154486;27;20042;-82
2022/08/06 03:12:18;;;;;;;3.33;1.30;;;;;;;17.78;64.18;99539.53;5153153;27;20042;-81
2022/08/06 03:14:45;;;;;;;1.00;0.90;;;;;;;17.74;64.69;99537.44;5145962;27;20151;-82
2022/08/06 03:17:14;;;;;;;1.60;0.93;;;;;;;17.92;64.61;99564.22;5155412;27;20077;-81
2022/08/06 03:19:45;;;;;;;4.05;1.33;;;;;;;17.86;64.43;99569.47;5152209;27;20358;-81
2022/08/06 03:22:13;;;;;;;3.20;1.23;;;;;;;17.79;64.96;99568.69;5154400;27;20046;-81
2022/08/06 03:24:42;;;;;;;1.33;1.10;;;;;;;17.87;64.76;99575.84;5153665;27;20039;-81
2022/08/06 03:27:13;;;;;;;2.88;1.10;;;;;;;17.75;64.86;99564.72;5153994;27;20477;-81
2022/08/06 03:29:41;;;;;;;2.33;1.02;;;;;;;17.88;64.52;99580.25;5146343;27;20046;-81
2022/08/06 03:32:09;;;;;;;6.30;1.10;;;;;;;17.91;64.93;99579.84;5153656;27;20046;-81
2022/08/06 03:34:36;;;;;;;1.35;1.08;;;;;;;17.76;65.40;99573.78;5151893;27;20057;-81
2022/08/06 03:37:06;;;;;;;2.97;1.20;;;;;;;17.61;65.27;99563.94;5152980;27;20046;-82
2022/08/06 03:39:33;;;;;;;4.05;1.17;;;;;;;17.56;65.39;99552.78;5152752;27;20401;-81
2022/08/06 03:42:00;;;;;;;1.52;1.00;;;;;;;17.65;65.67;99591.84;5153782;27;20054;-80
2022/08/06 03:44:27;;;;;;;2.88;1.13;;;;;;;17.54;66.21;99585.16;5153555;27;20541;-81
2022/08/06 03:46:59;;;;;;;2.13;1.02;;;;;;;17.65;65.60;99578.09;5154083;27;20489;-82
2022/08/06 03:49:30;;;;;;;2.40;1.00;;;;;;;17.80;65.47;99608.03;5147676;27;20392;-82
2022/08/06 03:51:59;;;;;;;2.58;1.30;;;;;;;17.85;65.20;99594.47;5153861;27;20049;-81
2022/08/06 03:54:30;;;;;;;5.82;1.13;;;;;;;17.79;65.11;99590.69;5152027;27;20054;-81
2022/08/06 03:57:00;;;;;;;2.00;1.10;;;;;;;17.58;66.27;99599.28;5153869;27;20133;-82
2022/08/06 03:59:30;;;;;;;2.53;1.05;;;;;;;17.58;66.62;99615.78;5153557;27;20105;-81
2022/08/06 04:01:59;;;;;;;3.70;1.20;;;;;;;17.51;67.03;99629.56;5151213;27;20054;-81
2022/08/06 04:04:27;;;;;;;3.80;1.23;;;;;;;17.49;66.81;99612.44;5152899;27;20133;-81
2022/08/06 04:06:55;;;;;;;2.78;1.08;;;;;;;17.47;67.09;99603.56;5153744;27;20050;-82
2022/08/06 04:09:24;;;;;;;1.75;1.20;;;;;;;17.40;67.66;99622.84;5151303;27;20054;-81
2022/08/06 04:11:53;;;;;;;1.15;1.02;;;;;;;17.25;68.16;99609.41;5153595;27;20039;-81
2022/08/06 04:14:20;;;;;;;3.92;1.20;;;;;;;17.34;68.03;99612.72;5152177;27;20051;-81
2022/08/06 04:16:49;;;;;;;1.90;1.17;;;;;;;17.20;68.38;99589.94;5147484;27;20078;-81
2022/08/06 04:19:18;;;;;;;1.75;0.90;;;;;;;17.35;68.65;99614.41;5152701;27;20046;-82
2022/08/06 04:21:45;;;;;;;1.75;1.15;;;;;;;17.37;68.32;99617.78;5154314;27;20043;-82
2022/08/06 04:24:12;;;;;;;3.90;1.25;;;;;;;17.21;68.37;99610.03;5152231;27;20046;-81
2022/08/06 04:26:40;;;;;;;1.83;1.08;;;;;;;17.34;67.79;99608.09;5145522;27;20034;-82
2022/08/06 04:29:13;;;;;;;4.20;1.10;;;;;;;17.58;67.74;99638.59;5150663;27;20267;-82
2022/08/06 04:31:43;;;;;;;4.35;1.20;;;;;;;17.51;67.47;99627.66;5144600;27;20269;-82
2022/08/06 04:34:10;;;;;;;2.15;1.08;;;;;;;17.63;67.15;99625.06;5151670;27;20043;-81
2022/08/06 04:36:40;;;;;;;4.60;1.33;;;;;;;17.50;67.90;99631.44;5153870;27;20043;-81
2022/08/06 04:39:07;;;;;;;5.43;1.20;;;;;;;17.44;68.84;99645.25;5154524;27;20137;-81
2022/08/06 04:41:34;;;;;;;2.58;1.42;;;;;;;17.27;68.94;99626.50;5135216;27;20051;-81
2022/08/06 04:44:01;;;;;;;2.50;1.08;;;;;;;17.12;69.67;99615.78;5152770;27;20508;-81
2022/08/06 04:46:31;;;;;;;4.05;1.20;;;;;;;17.42;69.39;99644.59;5151834;27;20053;-81
2022/08/06 04:48:58;;;;;;;4.75;1.17;;;;;;;17.15;69.86;99623.56;5150813;27;20477;-81
2022/08/06 04:51:24;;;;;;;4.18;1.20;;;;;;;17.31;70.24;99648.88;5133188;27;20051;-81
2022/08/06 04:53:51;;;;;;;3.13;1.58;;;;;;;17.28;70.01;99630.94;5151188;27;20046;-80
2022/08/06 04:56:18;;;;;;;2.58;1.30;;;;;;;17.48;69.61;99647.34;5153131;27;20070;-81
2022/08/06 04:58:44;;;;;;;1.83;1.10;;;;;;;17.27;69.74;99658.63;5151717;27;20047;-82
2022/08/06 05:01:11;;;;;;;6.22;1.58;;;;;;;17.24;70.84;99662.66;5150300;27;20106;-81
2022/08/06 05:03:39;;;;;;;5.38;1.20;;;;;;;17.12;70.70;99636.91;5151651;27;20046;-81
2022/08/06 05:06:10;;;;;;;2.20;1.15;;;;;;;17.20;70.33;99638.56;5150823;27;20392;-81
2022/08/06 05:08:42;;;;;;;3.75;1.35;;;;;;;17.58;69.77;99668.00;5149840;27;20039;-80
2022/08/06 05:11:16;;;;;;;4.25;1.27;;;;;;;17.61;69.18;99678.56;5153001;27;20046;-81
2022/08/06 05:13:46;;;;;;;2.10;1.17;;;;;;;17.54;69.63;99653.00;5151830;27;20045;-81
2022/08/06 05:16:15;;;;;;;2.42;1.50;;;;;;;17.58;69.88;99665.25;5150608;27;20074;-81
2022/08/06 05:18:47;;;;;;;3.47;1.17;;;;;;;17.40;69.66;99653.06;5144678;27;20038;-81
2022/08/06 05:21:18;;;;;;;3.28;1.13;;;;;;;17.24;70.72;99659.91;5152544;27;20050;-81
2022/08/06 05:23:47;;;;;;;3.78;1.25;;;;;;;17.38;70.96;99679.94;5148902;27;20053;-81
2022/08/06 05:26:14;;;;;;;3.38;1.25;;;;;;;17.37;70.64;99683.72;5151384;27;20054;-81
2022/08/06 05:28:41;;;;;;;3.58;1.45;;;;;;;17.59;69.99;99688.94;5148967;27;20303;-81
2022/08/06 05:31:08;;;;;;;1.90;1.50;;;;;;;17.60;70.01;99691.47;5152035;27;20400;-81
2022/08/06 05:33:37;;;;;;;3.80;1.20;;;;;;;17.50;69.71;99658.94;5150895;27;20397;-81
2022/08/06 05:36:07;;;;;;;2.22;1.20;;;;;;;17.59;69.57;99670.53;5149344;27;20066;-81
2022/08/06 05:38:35;;;;;;;4.32;1.45;;;;;;;17.47;69.86;99664.88;5151839;27;20053;-81
2022/08/06 05:41:02;;;;;;;1.40;1.30;;;;;;;17.67;69.81;99688.69;5151564;27;20038;-81
2022/08/06 05:43:29;;;;;;;1.88;1.10;;;;;;;17.86;69.69;99700.66;5134696;27;20077;-81
2022/08/06 05:45:58;;;;;;;4.45;1.20;;;;;;;17.99;68.45;99667.63;5150936;27;20474;-81
2022/08/06 05:48:26;;;;;;;5.30;1.38;;;;;;;18.44;67.07;99676.81;5150845;27;20058;-81
2022/08/06 05:50:59;;;;;;;2.53;1.20;;;;;;;18.97;64.90;99692.03;5150422;27;20144;-82
2022/08/06 05:53:33;;;;;;;1.50;1.25;;;;;;;19.15;62.90;99696.75;5144402;27;20047;-80
2022/08/06 05:56:06;;;;;;;4.10;1.60;;;;;;;19.45;61.67;99680.28;5151042;27;20043;-81
2022/08/06 05:58:39;;;;;;;2.90;1.30;;;;;;;19.90;59.67;99670.81;5146396;27;20051;-81
2022/08/06 06:01:08;;;;;;;4.00;1.77;;;;;;;20.04;59.48;99691.66;5148886;27;20046;-82
2022/08/06 06:03:36;;;;;;;6.32;1.10;;;;;;;20.25;58.64;99689.41;5148753;27;20451;-81
2022/08/06 06:06:04;;;;;;;1.20;0.80;;;;;;;20.04;58.84;99682.50;5145182;27;20046;-81
2022/08/06 06:08:32;;;;;;;4.70;1.20;;;;;;;19.98;58.41;99689.81;5150346;27;20049;-82
2022/08/06 06:10:59;;;;;;;1.83;1.00;;;;;;;20.31;57.62;99697.59;5148566;27;20051;-81
2022/08/06 06:13:26;;;;;;;4.78;1.45;;;;;;;20.60;57.99;99685.91;5147061;27;20043;-81
2022/08/06 06:16:01;;;;;;;5.88;1.23;;;;;;;20.56;56.18;99713.13;5150988;27;20056;-81
2022/08/06 06:18:40;;;;;;;4.72;1.30;;;;;;;20.79;55.55;99697.72;5148847;27;20046;-82
2022/08/06 06:21:19;;;;;;;0.90;0.82;;;;;;;20.79;55.27;99708.75;5150015;27;20051;-81
2022/08/06 06:23:54;;;;;;;3.75;1.15;;;;;;;20.80;55.15;99705.75;5148500;27;20046;-82
2022/08/06 06:26:26;;;;;;;3.20;1.15;;;;;;;20.98;54.03;99695.69;5151850;27;20130;-81
2022/08/06 06:29:00;;;;;;;2.25;1.70;;;;;;;21.33;53.53;99712.25;5149505;27;20039;-82
2022/08/06 06:31:31;;;;;;;1.27;0.90;;;;;;;21.65;52.35;99714.63;5154645;27;20424;-82
2022/08/06 06:34:05;;;;;;;1.55;1.00;;;;;;;21.30;52.10;99704.44;5156409;27;20054;-82
2022/08/06 06:36:36;;;;;;;4.10;0.85;;;;;;;21.39;51.58;99700.22;5156228;27;20374;-81
2022/08/06 06:39:09;;;;;;;3.00;1.00;;;;;;;21.56;52.48;99716.94;5156800;27;20085;-82
2022/08/06 06:41:40;;;;;;;4.30;1.15;;;;;;;21.75;50.97;99700.16;5155315;27;20046;-81
2022/08/06 06:44:12;;;;;;;3.90;1.30;;;;;;;21.43;51.76;99722.69;5155180;27;20039;-81
2022/08/06 06:46:46;;;;;;;3.28;1.45;;;;;;;21.53;51.65;99716.59;5156238;27;20053;-81
2022/08/06 06:49:18;;;;;;;2.05;1.13;;;;;;;21.45;51.51;99726.03;5156014;27;20145;-81
2022/08/06 06:51:49;;;;;;;4.53;1.15;;;;;;;21.12;52.13;99712.84;5156178;27;20047;-81
2022/08/06 06:54:23;;;;;;;1.17;1.08;;;;;;;21.08;52.59;99698.69;5152339;27;20047;-81
2022/08/06 06:56:53;;;;;;;2.70;1.00;;;;;;;21.13;52.08;99698.78;5151113;27;20049;-81
2022/08/06 06:59:24;;;;;;;0.95;0.90;;;;;;;21.65;51.34;99734.00;5156091;27;20051;-81
2022/08/06 07:01:53;;;;;;;2.72;0.98;;;;;;;21.32;51.89;99731.84;5149716;27;20039;-81
2022/08/06 07:04:23;;;;;;;3.35;1.10;;;;;;;21.45;51.96;99736.28;5156665;27;20046;-80
2022/08/06 07:06:52;;;;;;;2.42;1.77;;;;;;;21.47;51.81;99723.03;5142933;27;20409;-81
2022/08/06 07:09:23;;;;;;;6.70;1.20;;;;;;;21.20;52.68;99738.22;5154879;27;20054;-81
2022/08/06 07:11:52;;;;;;;2.20;1.10;;;;;;;21.48;51.66;99728.34;5152310;27;20047;-81
2022/08/06 07:14:21;;;;;;;1.75;1.30;;;;;;;21.09;52.92;99741.84;5156407;27;20042;-81
2022/08/06 07:16:49;;;;;;;3.50;1.25;;;;;;;20.97;53.07;99736.31;5139182;27;20058;-82
2022/08/06 07:19:18;;;;;;;7.28;1.15;;;;;;;20.83;52.96;99727.38;5150180;27;20051;-80
2022/08/06 07:21:47;;;;;;;3.28;1.25;;;;;;;20.91;53.80;99715.16;5153414;27;20039;-80
2022/08/06 07:24:15;;;;;;;2.35;1.10;;;;;;;20.94;53.21;99753.38;5155394;27;20050;-81
2022/08/06 07:26:44;;;;;;;1.75;1.20;;;;;;;20.61;53.69;99712.44;5153370;27;20054;-81
2022/08/06 07:29:56;;;;;;;1.75;1.10;;;;;;;20.84;53.07;99733.78;5152863;27;20504;-80
2022/08/06 07:32:24;;;;;;;4.65;1.58;;;;;;;20.74;52.80;99739.88;5130755;27;20046;-84
2022/08/06 07:34:51;;;;;;;2.53;1.00;;;;;;;20.92;52.57;99738.09;5152400;27;20046;-80
2022/08/06 07:37:23;;;;;;;3.85;1.20;;;;;;;20.96;52.50;99753.13;5153285;27;20043;-81
2022/08/06 07:39:53;;;;;;;2.17;1.20;;;;;;;21.06;51.50;99752.53;5154052;27;20493;-82
2022/08/06 07:42:24;;;;;;;4.35;1.17;;;;;;;20.60;52.77;99743.91;5153515;27;20074;-80
2022/08/06 07:44:56;;;;;;;7.70;1.30;;;;;;;20.69;52.26;99759.91;5154291;27;20034;-81
2022/08/06 07:47:28;;;;;;;2.88;1.25;;;;;;;20.50;52.45;99756.38;5154020;27;20046;-81
2022/08/06 07:49:57;;;;;;;1.80;1.05;;;;;;;20.34;52.38;99765.34;5154186;27;20441;-81
2022/08/06 07:52:26;;;;;;;3.67;1.17;;;;;;;20.44;52.49;99759.22;5152004;27;20050;-81
2022/08/06 07:54:54;;;;;;;1.80;1.17;;;;;;;20.22;52.93;99758.91;5153802;27;20039;-81
2022/08/06 07:57:24;;;;;;;2.90;1.10;;;;;;;20.70;51.62;99769.06;5154412;27;20055;-81
2022/08/06 07:59:51;;;;;;;3.13;1.05;;;;;;;20.64;51.38;99747.84;5150653;27;20042;-81
2022/08/06 08:02:18;;;;;;;1.20;0.73;;;;;;;21.09;49.83;99749.28;5152812;27;20054;-82
2022/08/06 08:07:32;;;;;;;1.58;0.90;;;;;;;21.22;49.16;99740.75;5153831;27;20065;-81
2022/08/06 08:10:00;;;;;;;1.85;0.90;;;;;;;21.29;49.78;99755.28;5152264;27;20054;-81
2022/08/06 08:12:29;;;;;;;4.30;1.00;;;;;;;20.99;48.73;99747.94;5138738;27;20686;-81
2022/08/06 08:14:57;;;;;;;1.60;0.90;;;;;;;20.75;48.23;99749.84;5152763;27;20074;-81
2022/08/06 08:17:24;;;;;;;3.13;1.20;;;;;;;20.45;49.55;99741.59;5153239;27;20053;-81
2022/08/06 08:19:50;;;;;;;1.95;0.90;;;;;;;20.60;49.32;99730.94;5154204;27;20046;-82
2022/08/06 08:22:19;;;;;;;3.28;1.02;;;;;;;20.97;48.42;99752.03;5153627;27;20110;-82
2022/08/06 08:24:47;;;;;;;4.30;0.93;;;;;;;20.83;48.43;99754.19;5155388;27;20054;-80
2022/08/06 08:27:15;;;;;;;1.60;0.98;;;;;;;20.86;47.87;99728.84;5153144;27;20054;-81
2022/08/06 08:29:43;;;;;;;2.30;1.15;;;;;;;20.69;48.39;99742.50;5153512;27;20042;-82
2022/08/06 08:32:10;;;;;;;2.28;0.82;;;;;;;20.52;47.71;99721.06;5153290;27;20209;-81
2022/08/06 08:34:37;;;;;;;3.60;0.95;;;;;;;20.33;47.79;99723.06;5150761;27;20041;-81
2022/08/06 08:37:04;;;;;;;5.70;1.13;;;;;;;20.40;47.99;99736.78;5154438;27;20047;-81
2022/08/06 08:39:31;;;;;;;3.55;1.17;;;;;;;20.64;46.48;99715.56;5135164;27;20100;-82
2022/08/06 08:42:06;;;;;;;4.40;1.08;;;;;;;20.98;46.25;99715.03;5143905;27;20031;-81
2022/08/06 08:44:34;;;;;;;8.23;0.98;;;;;;;21.12;45.33;99733.06;5154063;27;20058;-81
2022/08/06 08:47:03;;;;;;;2.85;0.90;;;;;;;21.03;44.52;99718.75;5152890;27;20049;-81
2022/08/06 08:49:36;;;;;;;1.55;0.90;;;;;;;20.72;44.54;99716.34;5149205;27;20047;-80
2022/08/06 08:52:04;;;;;;;4.25;0.80;;;;;;;20.81;45.17;99720.44;5152693;27;20090;-81
2022/08/06 08:54:35;;;;;;;2.90;1.02;;;;;;;20.93;44.30;99717.69;5150289;27;20366;-80
2022/08/06 08:57:03;;;;;;;4.20;0.85;;;;;;;21.44;44.65;99740.13;5149489;27;20039;-81
2022/08/06 08:59:30;;;;;;;1.50;0.85;;;;;;;21.11;44.92;99727.78;5150017;27;20055;-81
2022/08/06 09:01:57;;;;;;;2.05;0.65;;;;;;;20.98;44.92;99731.59;5155119;27;20117;-81
2022/08/06 09:04:26;;;;;;;1.45;1.08;;;;;;;21.04;44.92;99703.84;5153429;27;20056;-81
2022/08/06 09:07:02;;;;;;;4.70;0.82;;;;;;;21.47;44.98;99723.03;5155390;27;20493;-82
2022/08/06 09:09:29;;;;;;;2.08;0.80;;;;;;;21.59;44.25;99729.44;5153471;27;20576;-82
2022/08/06 09:11:57;;;;;;;3.10;0.75;;;;;;;21.65;44.44;99741.44;5151734;27;20042;-81
2022/08/06 09:14:24;;;;;;;6.93;1.27;;;;;;;21.21;43.80;99708.63;5151865;27;20047;-81
2022/08/06 09:16:51;;;;;;;3.08;0.80;;;;;;;21.13;44.05;99714.56;5150842;27;20053;-81
2022/08/06 09:19:18;;;;;;;2.95;0.70;;;;;;;20.75;45.29;99724.97;5150571;27;20042;-81
2022/08/06 09:21:46;;;;;;;2.05;0.70;;;;;;;20.89;45.08;99744.09;5152913;27;20046;-81
2022/08/06 09:24:12;;;;;;;0.85;0.80;;;;;;;20.73;45.61;99729.91;5148841;27;20042;-82
2022/08/06 09:27:00;;;;;;;1.80;0.80;;;;;;;21.31;44.04;99719.94;5147164;27;20077;-81
2022/08/06 09:29:26;;;;;;;2.13;0.60;;;;;;;21.59;43.29;99723.91;5150970;27;20058;-82
2022/08/06 09:31:53;;;;;;;1.58;0.75;;;;;;;21.42;44.49;99747.81;5151246;27;20057;-82
2022/08/06 09:34:19;;;;;;;1.27;0.73;;;;;;;20.87;45.24;99738.81;5149523;27;20035;-81
2022/08/06 09:36:49;;;;;;;1.13;0.73;;;;;;;20.77;44.98;99724.75;5152642;27;20039;-81
2022/08/06 09:39:16;;;;;;;1.65;0.90;;;;;;;20.89;45.33;99755.16;5152715;27;20103;-81
2022/08/06 09:41:48;;;;;;;1.08;0.95;;;;;;;21.13;45.37;99756.00;5151495;27;20133;-82
2022/08/06 09:44:15;;;;;;;3.15;1.02;;;;;;;21.54;44.58;99723.78;5151935;27;20431;-82
2022/08/06 09:46:44;;;;;;;2.10;1.00;;;;;;;21.70;43.74;99739.63;5150688;27;20053;-83
2022/08/06 09:49:12;;;;;;;1.35;1.00;;;;;;;21.40;44.87;99729.53;5151633;27;20054;-81
2022/08/06 09:51:39;;;;;;;3.95;1.05;;;;;;;21.71;44.29;99746.84;5144124;27;20507;-81
2022/08/06 09:54:08;;;;;;;2.03;0.90;;;;;;;21.76;43.95;99723.97;5151650;27;20046;-82
2022/08/06 09:56:35;;;;;;;1.42;0.70;;;;;;;22.06;42.96;99728.44;5152219;27;20447;-82
2022/08/06 09:59:05;;;;;;;7.50;1.20;;;;;;;22.38;43.93;99734.34;5152826;27;20053;-82
2022/08/06 10:01:39;;;;;;;5.40;1.10;;;;;;;21.97;43.56;99744.59;5152680;27;20050;-82
2022/08/06 10:04:06;;;;;;;3.00;1.55;;;;;;;22.24;43.37;99738.50;5149734;27;20046;-82
2022/08/06 10:06:33;;;;;;;9.38;1.10;;;;;;;22.62;42.29;99750.84;5152075;27;20061;-82
2022/08/06 10:09:10;;;;;;;2.08;1.08;;;;;;;22.55;42.08;99744.59;5152642;27;20051;-81
2022/08/06 10:11:38;;;;;;;1.35;0.93;;;;;;;22.44;42.60;99740.81;5152699;27;20046;-82
2022/08/06 10:14:06;;;;;;;2.28;0.95;;;;;;;22.13;43.09;99731.91;5151489;27;20042;-82
2022/08/06 10:16:33;;;;;;;2.42;1.27;;;;;;;22.33;42.58;99737.03;5151243;27;20066;-82
2022/08/06 10:19:02;;;;;;;2.35;0.77;;;;;;;22.69;42.66;99737.66;5149222;27;20047;-82
2022/08/06 10:21:30;;;;;;;1.42;0.85;;;;;;;23.03;41.37;99745.13;5150225;27;20065;-82
2022/08/06 10:24:05;;;;;;;6.60;1.02;;;;;;;23.14;40.50;99747.03;5151630;27;20050;-82
2022/08/06 10:26:34;;;;;;;4.40;1.08;;;;;;;22.86;41.45;99739.59;5151991;27;20070;-82
2022/08/06 10:29:04;;;;;;;2.92;1.23;;;;;;;23.08;40.42;99743.28;5148468;27;20042;-82
2022/08/06 10:31:32;;;;;;;2.20;0.90;;;;;;;23.57;40.03;99734.31;5151604;27;20050;-82
2022/08/06 10:34:02;;;;;;;3.72;0.68;;;;;;;23.72;39.23;99743.94;5151181;27;20053;-82
2022/08/06 10:36:31;;;;;;;;;;;;;;;23.91;38.06;99747.25;5152424;27;20410;-82
2022/08/06 10:38:58;;;;;;;3.88;0.88;;;;;;;23.70;38.28;99741.41;5152376;27;20411;-82
2022/08/06 10:41:26;;;;;;;4.35;1.00;;;;;;;23.49;38.37;99720.88;5150162;27;20396;-82
2022/08/06 10:43:56;;;;;;;3.17;0.90;;;;;;;23.50;36.54;99719.78;5149212;27;20074;-82
2022/08/06 10:46:23;;;;;;;2.97;0.90;;;;;;;23.68;37.46;99727.81;5151522;27;20046;-83
2022/08/06 10:48:50;;;;;;;4.53;0.90;;;;;;;23.66;38.31;99741.09;5152291;27;20100;-82
2022/08/06 10:51:18;;;;;;;3.75;0.80;;;;;;;23.69;38.11;99740.56;5151304;27;20043;-82
2022/08/06 10:53:46;;;;;;;4.03;0.88;;;;;;;23.59;38.22;99750.69;5151316;27;20057;-82
2022/08/06 10:56:21;;;;;;;1.35;0.88;;;;;;;23.20;38.27;99746.00;5149055;27;20127;-82
2022/08/06 10:58:48;;;;;;;3.10;0.98;;;;;;;23.14;37.53;99716.50;5148843;27;20133;-82
2022/08/06 11:01:24;;;;;;;1.00;0.75;;;;;;;23.54;37.56;99715.38;5151680;27;20134;-82
2022/08/06 11:04:10;;;;;;;1.48;0.82;;;;;;;24.03;37.44;99706.31;5151368;27;20218;-83
2022/08/06 11:06:59;;;;;;;0.98;0.57;;;;;;;24.33;36.82;99710.53;5150934;27;20477;-82
2022/08/06 11:09:58;;;;;;;2.10;0.60;;;;;;;24.57;35.94;99716.59;5151967;27;20055;-82
2022/08/06 11:12:40;;;;;;;2.90;1.00;;;;;;;24.67;36.33;99697.22;5143425;27;20513;-82
2022/08/06 11:15:15;;;;;;;1.95;1.05;;;;;;;24.73;36.11;99706.44;5149649;27;20059;-82
2022/08/06 11:17:45;;;;;;;4.63;0.70;;;;;;;24.98;35.39;99704.97;5147065;27;20046;-82
2022/08/06 11:20:41;;;;;;;3.85;1.30;;;;;;;25.34;34.88;99706.06;5154575;27;20074;-83
2022/08/06 11:23:32;;;;;;;0.57;0.50;;;;;;;25.46;34.24;99697.50;5137671;27;20070;-82
2022/08/06 11:26:01;;;;;;;1.10;0.70;;;;;;;25.08;35.41;99708.66;5153382;27;20107;-82
2022/08/06 11:29:04;;;;;;;5.20;1.05;;;;;;;25.04;34.46;99713.09;5155206;27;20321;-81
2022/08/06 11:31:39;;;;;;;11.02;1.10;;;;;;;25.39;33.99;99703.31;5154248;27;20050;-81
2022/08/06 11:34:13;;;;;;;2.67;1.00;;;;;;;25.67;32.79;99681.75;5150158;27;20500;-82
2022/08/06 11:36:49;;;;;;;4.68;0.68;;;;;;;25.18;33.50;99705.09;5146773;27;20137;-82
2022/08/06 11:39:19;;;;;;;2.47;0.70;;;;;;;25.36;34.11;99689.94;5152345;27;20050;-83
2022/08/06 11:41:55;;;;;;;2.22;0.82;;;;;;;25.65;35.36;99699.81;5156009;27;20043;-81
2022/08/06 11:44:28;;;;;;;1.63;0.82;;;;;;;25.85;33.72;99702.69;5156497;27;20049;-82
2022/08/06 11:47:14;;;;;;;1.55;1.00;;;;;;;26.02;33.28;99696.91;5156058;27;20549;-81
2022/08/06 11:49:43;;;;;;;4.00;0.80;;;;;;;26.17;32.45;99667.44;5151295;27;20125;-81
2022/08/06 11:52:30;;;;;;;2.00;0.68;;;;;;;26.32;32.57;99682.19;5150716;27;20103;-81